Pays
Station

 

Conditions  météo  pour  Scilly, Saint Mary'S  -  Royaume-Uni    Royaume-Uni

  
8 °C
    
 
 

METAR pour Scilly, Saint Mary'S :

EGHE 211720Z 23018KT 9999 FEW018 08/06 Q1016

 

Voici le bulletin pour Scilly, Saint Mary'S - Royaume-Uni.
 
Le bulletin a été fait il y a 5 heures et 39 minutes, à 17:20 UTC .
Le vent soufflait à la vitesse de 9.3 mètres par seconde de Sud-ouest (230°).
 
La température était de 8 °C, avec un point de rosée à 6 °C.
La pression atmosphérique était de 1016 hPa.
L'humidité relative était de 87.2%.
 
Il y avait 1 à 2/8ème de nébulosité à une hauteur de 549 mètres.
 
La visibilité globale était de supérieure à 10 kilomètres.
 

 
 
 

Pays :   A   B   C   D   E   F   G   H   I   J   K   L   M   N   O   P   Q   R   S   T   U   V   W   Y   Z

 

Partenaires :  Info Météo avec Met'info
Météo Marine avec MeteoMarine.net
Infos Site  |  Infos Légales  |  Crédits  |  Confidentialité
Contactez-nous  |  Ajouter aux favoris
© 2013-2019 METAR - Tous droits réservés